Time;durP1;ratioP1;P1;durP2;ratioP2;P2;SDS_P1;SDS_P2;PMS_P1;PMS_P2;Temp;Humidity;BMP_temperature;BMP_pressure;BME280_temperature;BME280_humidity;BME280_pressure;Samples;Min_cycle;Max_cycle;Signal;HPM_P1;HPM_P2
2022/03/13 00:00:04;;;;;;;12.90;7.75;;;1.70;78.60;;;;;;5104215;28;20017;-79
2022/03/13 00:07:21;;;;;;;14.55;8.07;;;1.70;78.50;;;;;;5024180;28;20037;-78
2022/03/13 00:10:05;;;;;;;15.43;7.97;;;1.70;78.20;;;;;;5015474;28;20025;-79
2022/03/13 00:17:07;;;;;;;14.93;8.68;;;1.70;78.70;;;;;;4967862;28;20073;-79
2022/03/13 00:19:48;;;;;;;15.75;8.20;;;1.70;77.70;;;;;;4895049;29;20052;-79
2022/03/13 00:22:17;;;;;;;14.80;8.45;;;1.60;78.80;;;;;;4895348;28;20048;-79
2022/03/13 00:31:46;;;;;;;16.33;7.47;;;1.60;79.20;;;;;;4929923;29;20028;-79
2022/03/13 00:35:25;;;;;;;13.35;7.05;;;1.50;79.20;;;;;;4916739;29;20047;-79
2022/03/13 00:38:24;;;;;;;;;;;;;;;;;;;;;
2022/03/13 00:41:37;;;;;;;9.75;7.35;;;1.60;80.50;;;;;;4888849;29;20025;-79
2022/03/13 00:44:59;;;;;;;;;;;;;;;;;;;;;
2022/03/13 00:47:43;;;;;;;13.30;7.38;;;1.60;76.60;;;;;;4860073;29;20025;-79
2022/03/13 00:51:06;;;;;;;;;;;;;;;;;;;;;
2022/03/13 01:04:34;;;;;;;14.63;6.82;;;1.80;73.40;;;;;;4827456;29;20614;-79
2022/03/13 01:11:30;;;;;;;12.05;6.68;;;1.70;73.90;;;;;;4914240;29;20216;-79
2022/03/13 01:28:30;;;;;;;12.57;7.30;;;1.70;70.50;;;;;;4891136;29;20060;-79
2022/03/13 01:39:09;;;;;;;12.75;7.10;;;1.70;71.60;;;;;;4815565;29;20088;-79
2022/03/13 01:59:17;;;;;;;12.05;7.00;;;1.50;71.80;;;;;;4818723;29;20084;-79
2022/03/13 02:03:25;;;;;;;;;;;;;;;;;;;;;
2022/03/13 03:08:05;;;;;;;11.10;6.93;;;0.90;72.70;;;;;;5063368;28;20051;-78
2022/03/13 03:31:49;;;;;;;10.03;6.27;;;0.60;75.50;;;;;;4876107;29;20590;-78
2022/03/13 03:51:15;;;;;;;15.57;6.83;;;0.50;76.70;;;;;;4890161;29;20077;-78
2022/03/13 04:18:46;;;;;;;;;;;;;;;;;;;;;
2022/03/13 04:28:52;;;;;;;;;;;;;;;;;;;;;
2022/03/13 05:14:23;;;;;;;12.90;6.27;;;-0.20;82.20;;;;;;4894546;29;20299;-79
2022/03/13 05:28:05;;;;;;;;;;;;;;;;;;;;;
2022/03/13 05:37:58;;;;;;;10.97;5.77;;;-0.10;82.90;;;;;;4910611;29;20053;-79
2022/03/13 05:48:23;;;;;;;;;;;;;;;;;;;;;
2022/03/13 06:07:56;;;;;;;13.13;5.90;;;0.60;81.10;;;;;;4901126;29;20036;-79
2022/03/13 06:14:11;;;;;;;8.70;5.90;;;0.80;81.00;;;;;;4904404;29;20403;-80
2022/03/13 06:17:19;;;;;;;11.60;6.23;;;0.90;81.30;;;;;;4903851;29;20048;-80
2022/03/13 06:24:00;;;;;;;11.70;6.43;;;1.10;81.90;;;;;;4888808;29;20372;-79
2022/03/13 06:30:57;;;;;;;;;;;;;;;;;;;;;
2022/03/13 06:33:36;;;;;;;14.93;6.28;;;1.50;78.90;;;;;;4855532;29;20048;-77
2022/03/13 06:36:14;;;;;;;9.45;5.75;;;1.70;78.50;;;;;;4868459;29;20131;-77
2022/03/13 06:38:45;;;;;;;11.70;6.43;;;1.80;77.90;;;;;;4923245;29;20078;-77
2022/03/13 06:41:13;;;;;;;8.63;5.82;;;2.00;78.80;;;;;;4983684;28;20046;-77
2022/03/13 06:43:42;;;;;;;9.73;6.63;;;2.10;77.60;;;;;;4988004;28;20081;-77
2022/03/13 06:46:17;;;;;;;9.23;6.43;;;2.20;78.20;;;;;;4997791;28;20033;-77
2022/03/13 06:48:52;;;;;;;13.80;6.57;;;2.20;78.30;;;;;;5060722;28;20076;-77
2022/03/13 06:51:39;;;;;;;15.18;6.50;;;2.30;77.30;;;;;;5064436;28;20109;-76
2022/03/13 06:54:31;;;;;;;15.43;6.90;;;2.50;76.70;;;;;;5067558;28;20047;-77
2022/03/13 06:56:57;;;;;;;10.77;6.55;;;2.60;76.20;;;;;;5077772;28;20039;-77
2022/03/13 06:59:32;;;;;;;19.33;6.50;;;2.80;77.10;;;;;;5077264;28;20068;-77
2022/03/13 07:02:01;;;;;;;10.35;6.68;;;2.90;78.10;;;;;;5073084;28;20017;-77
2022/03/13 07:04:32;;;;;;;9.52;5.85;;;3.00;76.70;;;;;;5082703;28;20044;-77
2022/03/13 07:07:16;;;;;;;10.32;6.20;;;3.00;77.40;;;;;;5077964;28;20441;-78
2022/03/13 07:09:45;;;;;;;12.10;6.55;;;3.10;76.40;;;;;;5057387;28;20108;-78
2022/03/13 07:12:14;;;;;;;9.70;6.53;;;3.20;75.20;;;;;;5075659;28;20032;-77
2022/03/13 07:14:45;;;;;;;9.85;6.10;;;3.40;74.70;;;;;;5065475;28;20073;-78
2022/03/13 07:17:12;;;;;;;8.95;6.05;;;3.50;74.90;;;;;;5080459;28;20114;-77
2022/03/13 07:19:39;;;;;;;10.40;6.00;;;3.60;75.20;;;;;;5076752;28;20086;-78
2022/03/13 07:22:13;;;;;;;11.13;6.38;;;3.70;75.20;;;;;;5065938;28;20523;-77
2022/03/13 07:24:43;;;;;;;8.98;5.78;;;3.80;74.20;;;;;;5059975;28;20028;-79
2022/03/13 07:27:12;;;;;;;9.82;5.97;;;3.90;75.80;;;;;;5078213;28;20111;-77
2022/03/13 07:29:41;;;;;;;11.95;6.60;;;4.10;74.40;;;;;;5085993;28;20029;-80
2022/03/13 07:32:07;;;;;;;9.82;6.68;;;4.30;75.00;;;;;;5064897;28;20024;-77
2022/03/13 07:34:33;;;;;;;12.23;6.68;;;4.40;75.50;;;;;;5063168;28;20024;-77
2022/03/13 07:37:57;;;;;;;11.40;7.03;;;4.50;75.10;;;;;;5083339;28;20401;-84
2022/03/13 07:40:26;;;;;;;11.48;6.72;;;4.70;73.70;;;;;;5039985;28;20119;-81
2022/03/13 07:42:52;;;;;;;11.63;6.75;;;4.90;74.60;;;;;;5084339;28;20025;-85
2022/03/13 07:45:40;;;;;;;11.98;6.53;;;5.00;74.30;;;;;;5068895;28;20387;-86
2022/03/13 07:48:19;;;;;;;9.68;6.20;;;5.10;73.40;;;;;;5088896;28;20114;-83
2022/03/13 07:51:21;;;;;;;;;;;;;;;;;;;;;
2022/03/13 07:53:50;;;;;;;12.68;9.45;;;5.40;72.60;;;;;;5084593;28;20046;-85
2022/03/13 07:56:31;;;;;;;12.68;7.22;;;5.60;71.90;;;;;;5063555;28;20032;-82
2022/03/13 07:59:02;;;;;;;9.98;6.93;;;5.70;71.60;;;;;;5084043;28;20063;-85
2022/03/13 08:01:28;;;;;;;13.95;8.52;;;5.80;70.40;;;;;;5088480;28;20032;-82
2022/03/13 08:03:54;;;;;;;14.38;8.13;;;6.00;72.80;;;;;;5058209;28;20659;-81
2022/03/13 08:06:28;;;;;;;10.15;6.65;;;6.10;72.70;;;;;;5087637;28;20024;-87
2022/03/13 08:09:09;;;;;;;11.07;6.65;;;6.20;70.10;;;;;;5062973;28;20027;-87
2022/03/13 08:11:36;;;;;;;11.57;6.63;;;6.40;69.20;;;;;;5077108;28;20067;-89
2022/03/13 08:14:07;;;;;;;8.20;5.95;;;6.60;69.50;;;;;;5078583;28;20024;-79
2022/03/13 08:16:39;;;;;;;10.33;6.40;;;6.70;70.10;;;;;;5079306;28;20033;-79
2022/03/13 08:19:05;;;;;;;8.23;5.78;;;6.80;69.40;;;;;;5081303;28;20283;-78
2022/03/13 08:21:37;;;;;;;8.05;5.43;;;6.90;66.90;;;;;;5080700;28;20025;-78
2022/03/13 08:24:07;;;;;;;10.30;6.70;;;7.10;64.30;;;;;;5081332;28;20044;-78
2022/03/13 08:26:38;;;;;;;11.57;5.47;;;7.20;66.60;;;;;;5078972;28;20532;-78
2022/03/13 08:29:19;;;;;;;7.18;5.30;;;7.30;66.60;;;;;;5068509;28;20028;-78
2022/03/13 08:31:45;;;;;;;7.22;5.25;;;7.40;66.00;;;;;;5083504;28;20036;-79
2022/03/13 08:34:11;;;;;;;7.60;5.25;;;7.40;65.30;;;;;;5074478;28;20178;-78
2022/03/13 08:36:45;;;;;;;9.95;5.78;;;7.60;62.50;;;;;;5078003;28;20033;-82
2022/03/13 08:39:11;;;;;;;7.75;5.30;;;7.70;60.50;;;;;;5085359;28;20627;-77
2022/03/13 08:41:37;;;;;;;7.85;5.25;;;7.70;60.80;;;;;;5080162;28;20075;-80
2022/03/13 08:44:04;;;;;;;7.13;4.80;;;7.70;61.00;;;;;;5062994;28;20052;-77
2022/03/13 08:46:30;;;;;;;8.98;4.68;;;7.70;61.00;;;;;;5085137;28;20475;-78
2022/03/13 08:48:57;;;;;;;9.20;4.20;;;7.80;64.10;;;;;;5077838;28;20111;-76
2022/03/13 08:51:27;;;;;;;5.90;3.83;;;7.90;64.60;;;;;;5079062;28;20460;-77
2022/03/13 08:53:54;;;;;;;6.38;4.60;;;8.10;63.10;;;;;;5089478;28;20040;-77
2022/03/13 08:56:24;;;;;;;6.88;5.20;;;8.20;65.50;;;;;;5081462;28;20035;-79
2022/03/13 08:58:50;;;;;;;7.60;4.82;;;8.20;60.40;;;;;;5096931;28;20063;-78
2022/03/13 09:01:24;;;;;;;9.98;6.40;;;8.10;61.00;;;;;;5082104;28;20038;-77
2022/03/13 09:03:51;;;;;;;8.18;5.82;;;8.10;61.00;;;;;;5096877;28;20052;-77
2022/03/13 09:06:18;;;;;;;8.73;5.28;;;8.10;61.40;;;;;;5096693;28;20035;-77
2022/03/13 09:08:44;;;;;;;16.90;6.55;;;8.10;61.00;;;;;;5085249;28;20020;-76
2022/03/13 09:11:11;;;;;;;10.68;6.55;;;8.10;63.90;;;;;;5103194;28;20024;-77
2022/03/13 09:13:37;;;;;;;14.65;6.32;;;8.00;64.10;;;;;;5098850;28;20032;-77
2022/03/13 09:16:04;;;;;;;8.32;6.25;;;7.90;66.30;;;;;;5102104;28;20039;-78
2022/03/13 09:18:30;;;;;;;8.45;4.60;;;8.00;65.30;;;;;;5100818;28;20092;-77
2022/03/13 09:21:01;;;;;;;10.90;5.95;;;8.10;63.20;;;;;;5104996;28;20062;-80
2022/03/13 09:23:28;;;;;;;8.80;6.38;;;8.00;64.90;;;;;;5082353;28;20039;-80
2022/03/13 09:25:57;;;;;;;7.75;5.85;;;8.10;69.10;;;;;;5104985;28;20054;-80
2022/03/13 09:28:23;;;;;;;9.10;5.35;;;8.10;67.10;;;;;;5100440;28;20527;-80
2022/03/13 09:30:49;;;;;;;11.20;7.78;;;8.10;66.30;;;;;;5104506;28;20035;-80
2022/03/13 09:33:15;;;;;;;11.02;6.78;;;8.10;71.50;;;;;;5098964;28;20032;-80
2022/03/13 09:35:42;;;;;;;13.77;7.60;;;8.00;72.20;;;;;;5103388;28;20493;-80
2022/03/13 09:38:08;;;;;;;10.88;6.55;;;8.20;72.40;;;;;;5101387;28;20027;-81
2022/03/13 09:40:34;;;;;;;8.98;6.10;;;8.10;72.00;;;;;;5096010;28;20035;-80
2022/03/13 09:43:01;;;;;;;9.93;6.45;;;8.20;70.30;;;;;;5098707;28;20076;-81
2022/03/13 09:45:27;;;;;;;5.93;5.18;;;8.40;69.10;;;;;;5102627;28;20063;-80
2022/03/13 09:47:57;;;;;;;8.75;5.40;;;8.20;67.00;;;;;;5081434;28;20024;-80
2022/03/13 09:50:23;;;;;;;9.38;6.07;;;8.30;67.60;;;;;;5093590;28;20484;-81
2022/03/13 09:52:50;;;;;;;6.50;5.45;;;8.30;67.90;;;;;;5100507;28;20027;-81
2022/03/13 09:55:16;;;;;;;6.40;4.80;;;8.30;67.80;;;;;;5059893;28;20044;-81
2022/03/13 09:57:43;;;;;;;7.07;5.72;;;8.40;65.80;;;;;;5078476;28;20028;-80
2022/03/13 10:00:17;;;;;;;8.20;6.25;;;8.40;68.90;;;;;;5082681;28;20032;-80
2022/03/13 10:02:44;;;;;;;9.70;6.32;;;8.60;67.30;;;;;;5042408;28;20554;-80
2022/03/13 10:05:16;;;;;;;8.07;5.90;;;8.50;67.10;;;;;;5078853;28;20036;-80
2022/03/13 10:07:55;;;;;;;;;;;8.50;68.80;;;;;;5081494;28;20617;-80
2022/03/13 10:10:26;;;;;;;8.98;5.47;;;8.80;68.10;;;;;;5085346;28;20344;-80
2022/03/13 10:12:52;;;;;;;8.32;5.82;;;8.70;66.80;;;;;;5060779;28;20015;-80
2022/03/13 10:15:20;;;;;;;7.57;5.05;;;8.70;68.30;;;;;;5082378;28;20501;-80
2022/03/13 10:17:49;;;;;;;8.43;5.43;;;8.70;67.60;;;;;;5064871;28;20390;-81
2022/03/13 10:20:28;;;;;;;8.18;5.88;;;8.70;67.20;;;;;;5076130;28;20025;-81
2022/03/13 10:22:59;;;;;;;9.93;5.20;;;8.70;68.90;;;;;;5072832;28;20024;-80
2022/03/13 10:25:36;;;;;;;11.15;5.43;;;8.70;67.60;;;;;;5077955;28;20514;-80
2022/03/13 10:28:16;;;;;;;12.63;5.60;;;8.80;66.30;;;;;;5078607;28;20035;-81
2022/03/13 10:30:45;;;;;;;8.60;5.43;;;8.90;66.90;;;;;;5070659;28;20031;-81
2022/03/13 10:33:23;;;;;;;9.73;5.22;;;8.90;66.70;;;;;;5079230;28;20024;-80
2022/03/13 10:35:48;;;;;;;9.77;5.15;;;9.10;66.30;;;;;;5083718;28;20020;-81
2022/03/13 10:38:23;;;;;;;6.78;5.15;;;9.10;66.90;;;;;;5079244;28;20064;-80
2022/03/13 10:40:57;;;;;;;7.10;5.40;;;8.90;66.80;;;;;;5083517;28;20020;-80
2022/03/13 10:43:26;;;;;;;9.57;4.63;;;8.90;66.90;;;;;;5079335;28;20032;-80
2022/03/13 10:45:56;;;;;;;9.27;5.00;;;8.80;68.30;;;;;;5083571;28;20020;-80
2022/03/13 10:48:33;;;;;;;8.45;5.00;;;8.80;70.40;;;;;;5079206;28;20024;-81
2022/03/13 10:51:03;;;;;;;9.05;5.18;;;8.70;66.90;;;;;;5083402;28;20387;-81
2022/03/13 10:53:30;;;;;;;8.00;4.97;;;8.70;67.50;;;;;;5083091;28;20047;-80
2022/03/13 10:56:09;;;;;;;6.45;4.68;;;8.80;69.90;;;;;;5084712;28;20127;-81
2022/03/13 10:58:40;;;;;;;7.10;4.10;;;9.00;68.90;;;;;;5087225;28;20040;-80
2022/03/13 11:01:09;;;;;;;8.13;4.60;;;9.00;70.60;;;;;;5101230;28;20137;-80
2022/03/13 11:03:54;;;;;;;10.93;4.55;;;9.10;69.90;;;;;;5105343;28;20457;-80
2022/03/13 11:06:25;;;;;;;5.97;4.28;;;9.00;68.40;;;;;;5100718;27;20048;-80
2022/03/13 11:08:55;;;;;;;5.80;4.47;;;9.00;69.90;;;;;;5095452;28;20236;-81
2022/03/13 11:11:27;;;;;;;9.45;4.40;;;9.00;69.50;;;;;;5107403;28;20027;-81
2022/03/13 11:13:59;;;;;;;7.07;4.53;;;9.10;69.60;;;;;;5095793;28;20479;-81
2022/03/13 11:16:32;;;;;;;5.20;3.90;;;9.20;69.10;;;;;;5101098;28;20055;-80
2022/03/13 11:19:03;;;;;;;6.82;3.67;;;9.30;71.10;;;;;;5085280;28;20076;-81
2022/03/13 11:21:29;;;;;;;4.18;3.67;;;9.20;70.90;;;;;;5101574;28;20119;-81
2022/03/13 11:23:55;;;;;;;10.05;4.20;;;9.10;70.40;;;;;;5089671;28;20024;-81
2022/03/13 11:26:29;;;;;;;6.45;3.75;;;9.20;71.30;;;;;;5107818;28;20020;-80
2022/03/13 11:28:58;;;;;;;7.65;4.50;;;9.30;70.30;;;;;;5095679;28;20471;-80
2022/03/13 11:31:37;;;;;;;7.43;4.47;;;9.40;70.50;;;;;;5100603;28;20054;-80
2022/03/13 11:34:20;;;;;;;6.40;3.80;;;9.40;71.60;;;;;;5102813;28;20020;-81
2022/03/13 11:36:50;;;;;;;9.75;4.82;;;9.40;70.30;;;;;;5101838;28;20073;-88
2022/03/13 11:39:31;;;;;;;17.75;4.15;;;9.50;70.30;;;;;;5108265;28;20052;-84
2022/03/13 11:42:03;;;;;;;5.10;3.80;;;9.50;70.50;;;;;;5098704;28;20023;-87
2022/03/13 11:44:30;;;;;;;5.07;3.40;;;9.50;71.60;;;;;;5086290;28;20067;-85
2022/03/13 11:46:59;;;;;;;5.57;3.00;;;9.60;72.00;;;;;;5088911;28;20028;-84
2022/03/13 11:49:37;;;;;;;6.53;3.53;;;9.70;72.20;;;;;;5083074;28;20063;-82
2022/03/13 11:52:20;;;;;;;6.63;3.85;;;9.90;71.40;;;;;;5102439;28;20034;-81
2022/03/13 11:55:03;;;;;;;7.93;3.65;;;9.90;70.90;;;;;;5105996;28;20097;-83
2022/03/13 11:57:50;;;;;;;8.15;3.80;;;9.90;71.30;;;;;;5084443;28;20036;-84
2022/03/13 12:00:18;;;;;;;9.10;3.53;;;9.90;74.10;;;;;;5087155;28;20028;-87
2022/03/13 12:02:47;;;;;;;6.53;3.55;;;9.90;72.20;;;;;;5092888;28;20398;-81
2022/03/13 12:05:25;;;;;;;5.85;3.63;;;9.80;73.10;;;;;;5083308;28;20030;-83
2022/03/13 12:08:04;;;;;;;7.90;3.35;;;9.60;74.40;;;;;;5112712;28;20027;-84
2022/03/13 12:10:42;;;;;;;7.20;4.10;;;9.50;76.10;;;;;;5091677;28;20740;-81
2022/03/13 12:13:12;;;;;;;8.57;3.42;;;9.40;76.20;;;;;;5078571;28;20081;-81
2022/03/13 12:15:41;;;;;;;4.60;3.58;;;9.40;75.90;;;;;;5106846;28;20034;-84
2022/03/13 12:18:32;;;;;;;5.38;3.53;;;9.40;77.40;;;;;;5104093;28;20397;-79
2022/03/13 12:21:18;;;;;;;6.68;3.65;;;9.50;76.00;;;;;;5081483;28;20020;-80
2022/03/13 12:23:46;;;;;;;6.05;4.45;;;10.00;75.90;;;;;;5103716;28;20035;-80
2022/03/13 12:26:16;;;;;;;6.30;3.50;;;13.20;71.10;;;;;;5101739;28;20023;-80
2022/03/13 12:28:42;;;;;;;5.82;3.60;;;15.80;65.10;;;;;;5097474;28;20035;-81
2022/03/13 12:31:11;;;;;;;8.13;3.70;;;16.60;62.10;;;;;;5097494;28;20529;-80
2022/03/13 12:33:48;;;;;;;3.65;3.30;;;16.60;61.30;;;;;;5104235;28;20331;-80
2022/03/13 12:36:15;;;;;;;6.75;3.85;;;16.90;60.10;;;;;;5104902;28;20031;-80
2022/03/13 12:38:45;;;;;;;4.47;3.50;;;17.00;59.70;;;;;;5082475;28;20035;-82
2022/03/13 12:41:12;;;;;;;4.60;3.50;;;16.90;60.80;;;;;;5102317;28;20024;-83
2022/03/13 12:44:05;;;;;;;7.13;4.03;;;16.90;60.00;;;;;;5092008;28;20556;-80
2022/03/13 12:46:35;;;;;;;4.70;3.33;;;16.80;60.40;;;;;;5101323;28;20506;-81
2022/03/13 12:49:03;;;;;;;5.38;3.65;;;16.60;60.60;;;;;;5097865;28;20039;-81
2022/03/13 12:51:50;;;;;;;4.93;3.63;;;17.20;60.00;;;;;;5100029;28;20024;-80
2022/03/13 12:55:00;;;;;;;4.45;3.97;;;17.50;59.20;;;;;;5100659;28;20139;-83
2022/03/13 12:57:26;;;;;;;6.03;3.70;;;17.70;59.10;;;;;;5018155;28;20060;-81
2022/03/13 12:59:54;;;;;;;6.47;3.85;;;19.10;57.30;;;;;;5064872;28;20115;-86
2022/03/13 13:02:37;;;;;;;5.70;3.70;;;19.10;56.10;;;;;;5102932;28;20043;-83
2022/03/13 13:05:04;;;;;;;;;;;19.10;56.40;;;;;;5102003;28;20534;-83
2022/03/13 13:07:38;;;;;;;5.13;3.75;;;20.30;55.40;;;;;;5100510;28;19915;-80
2022/03/13 13:10:09;;;;;;;4.95;4.00;;;21.70;53.60;;;;;;5101713;28;20016;-79
2022/03/13 13:12:37;;;;;;;4.03;3.55;;;20.70;54.10;;;;;;5100133;28;20500;-78
2022/03/13 13:15:08;;;;;;;3.97;3.58;;;20.30;54.70;;;;;;5100119;28;20153;-78
2022/03/13 13:17:34;;;;;;;3.33;3.03;;;21.10;54.20;;;;;;5082354;28;20043;-79
2022/03/13 13:20:05;;;;;;;8.13;3.67;;;20.90;53.60;;;;;;5104241;28;20016;-78
2022/03/13 13:22:35;;;;;;;4.45;3.58;;;22.60;52.20;;;;;;5102154;28;20028;-78
2022/03/13 13:25:16;;;;;;;8.05;4.03;;;22.50;51.50;;;;;;5095662;28;20027;-76
2022/03/13 13:27:54;;;;;;;5.60;3.78;;;22.70;51.10;;;;;;5103744;28;20027;-77
2022/03/13 13:30:36;;;;;;;4.88;3.42;;;22.40;51.20;;;;;;5103844;28;20020;-77
2022/03/13 13:33:07;;;;;;;;;;;22.30;51.30;;;;;;5104150;28;20020;-79
2022/03/13 13:35:46;;;;;;;6.55;3.20;;;23.00;50.30;;;;;;5090395;28;19973;-80
2022/03/13 13:38:17;;;;;;;3.63;3.25;;;22.30;50.20;;;;;;5102332;28;20557;-77
2022/03/13 13:40:56;;;;;;;5.47;3.08;;;22.70;50.10;;;;;;5098449;28;20119;-78
2022/03/13 13:43:29;;;;;;;6.32;2.85;;;22.30;49.90;;;;;;5100784;28;20023;-78
2022/03/13 13:46:04;;;;;;;4.45;3.20;;;22.90;49.10;;;;;;5098393;28;20495;-80
2022/03/13 13:48:32;;;;;;;3.78;3.10;;;22.20;49.90;;;;;;5102357;28;20084;-78
2022/03/13 13:51:36;;;;;;;3.85;3.08;;;21.80;50.30;;;;;;5101560;28;20132;-78
2022/03/13 13:54:08;;;;;;;5.13;3.03;;;22.10;49.70;;;;;;5028900;28;20082;-76
2022/03/13 13:56:41;;;;;;;5.00;3.28;;;22.70;49.40;;;;;;5097439;28;20023;-76
2022/03/13 13:59:24;;;;;;;4.18;3.25;;;22.20;49.50;;;;;;5085468;28;20036;-79
2022/03/13 14:02:13;;;;;;;7.03;3.75;;;22.30;49.80;;;;;;5096828;28;20090;-77
2022/03/13 14:04:46;;;;;;;6.25;3.90;;;22.60;49.20;;;;;;5098328;28;20034;-77
2022/03/13 14:07:12;;;;;;;3.83;2.92;;;21.70;50.60;;;;;;5096776;28;20048;-77
2022/03/13 14:09:39;;;;;;;3.95;3.00;;;21.20;50.40;;;;;;5098149;28;20051;-77
2022/03/13 14:12:09;;;;;;;6.38;2.80;;;19.40;53.10;;;;;;5100907;28;20019;-77
2022/03/13 14:14:36;;;;;;;4.63;3.15;;;19.40;53.50;;;;;;5102848;28;20099;-77
2022/03/13 14:17:02;;;;;;;7.03;3.30;;;19.20;53.90;;;;;;5091432;28;20562;-77
2022/03/13 14:19:29;;;;;;;3.63;2.70;;;20.30;52.50;;;;;;5098380;28;20024;-77
2022/03/13 14:21:59;;;;;;;8.15;3.22;;;21.10;51.10;;;;;;5098381;28;20059;-77
2022/03/13 14:24:25;;;;;;;7.80;3.22;;;20.70;51.70;;;;;;5103315;28;20015;-77
2022/03/13 14:26:51;;;;;;;3.75;3.15;;;20.30;52.20;;;;;;5102346;28;20031;-78
2022/03/13 14:29:19;;;;;;;4.13;2.95;;;20.20;53.00;;;;;;5097659;28;20145;-76
2022/03/13 14:31:45;;;;;;;6.07;4.45;;;19.50;53.20;;;;;;5105815;28;20023;-77
2022/03/13 14:34:11;;;;;;;6.75;4.75;;;20.20;52.90;;;;;;5102391;28;20368;-77
2022/03/13 14:36:40;;;;;;;4.85;3.35;;;21.40;52.40;;;;;;5107331;28;20036;-79
2022/03/13 14:39:09;;;;;;;4.70;2.90;;;22.70;49.90;;;;;;5100740;28;20031;-81
2022/03/13 14:41:36;;;;;;;5.07;3.17;;;23.50;48.00;;;;;;5102037;28;20028;-85
2022/03/13 14:44:02;;;;;;;5.57;3.05;;;23.00;48.10;;;;;;5085991;28;20028;-81
2022/03/13 14:46:31;;;;;;;4.07;3.38;;;21.90;49.80;;;;;;5084070;28;20021;-80
2022/03/13 14:49:03;;;;;;;2.92;2.53;;;22.00;50.20;;;;;;5111263;28;20027;-80
2022/03/13 14:51:29;;;;;;;3.80;3.20;;;22.20;49.30;;;;;;5104944;28;20023;-80
2022/03/13 14:53:55;;;;;;;4.32;3.40;;;22.20;49.80;;;;;;5106981;28;20056;-80
2022/03/13 14:56:21;;;;;;;7.40;3.10;;;22.40;48.80;;;;;;5111627;28;20030;-80
2022/03/13 14:58:53;;;;;;;3.50;3.20;;;20.90;50.90;;;;;;5074905;28;20039;-80
2022/03/13 15:01:22;;;;;;;;;;;20.50;51.80;;;;;;5109344;28;20027;-80
2022/03/13 15:03:51;;;;;;;10.00;3.25;;;20.30;52.40;;;;;;5092759;28;19904;-80
2022/03/13 15:06:17;;;;;;;6.65;3.05;;;20.50;52.10;;;;;;5103628;28;20020;-80
2022/03/13 15:08:54;;;;;;;8.43;3.03;;;20.50;51.40;;;;;;5102279;28;20020;-80
2022/03/13 15:11:19;;;;;;;6.95;2.97;;;19.90;52.30;;;;;;5106003;28;20019;-80
2022/03/13 15:13:48;;;;;;;8.25;3.38;;;19.50;53.40;;;;;;5101555;28;20023;-80
2022/03/13 15:16:24;;;;;;;5.07;3.22;;;18.80;53.80;;;;;;5101338;28;20115;-80
2022/03/13 15:18:50;;;;;;;3.58;3.13;;;18.70;54.70;;;;;;5094006;28;20094;-79
2022/03/13 15:21:19;;;;;;;5.70;3.30;;;18.80;54.30;;;;;;5100631;28;20055;-80
2022/03/13 15:23:45;;;;;;;4.93;3.05;;;18.50;55.10;;;;;;5105182;28;20371;-80
2022/03/13 15:26:11;;;;;;;4.45;3.03;;;18.00;55.30;;;;;;5097902;28;20027;-80
2022/03/13 15:28:37;;;;;;;6.97;3.33;;;17.40;56.10;;;;;;5107570;28;20024;-80
2022/03/13 15:31:06;;;;;;;3.95;2.90;;;17.40;56.90;;;;;;5103616;28;20530;-80
2022/03/13 15:33:34;;;;;;;4.45;3.20;;;17.30;56.90;;;;;;5105742;28;20031;-80
2022/03/13 15:36:00;;;;;;;4.93;3.47;;;18.20;55.80;;;;;;5103956;28;20024;-80
2022/03/13 15:38:32;;;;;;;3.85;3.03;;;18.00;56.10;;;;;;5086451;28;20040;-80
2022/03/13 15:41:01;;;;;;;4.60;3.33;;;17.70;56.50;;;;;;5085304;28;20131;-80
2022/03/13 15:43:27;;;;;;;5.90;3.10;;;17.60;57.10;;;;;;5104736;28;20467;-79
2022/03/13 15:45:53;;;;;;;2.75;2.55;;;17.50;56.80;;;;;;5081356;28;20035;-80
2022/03/13 15:48:20;;;;;;;3.40;3.10;;;17.00;56.70;;;;;;5104229;28;20027;-80
2022/03/13 15:51:07;;;;;;;3.60;3.10;;;16.60;58.10;;;;;;5081748;28;20062;-80
2022/03/13 15:53:34;;;;;;;4.65;2.88;;;16.20;58.00;;;;;;5104505;28;20051;-80
2022/03/13 15:56:02;;;;;;;4.75;3.17;;;16.30;58.10;;;;;;5081910;28;20394;-80
2022/03/13 15:58:31;;;;;;;4.53;3.17;;;16.50;58.50;;;;;;5105597;28;20032;-79
2022/03/13 16:00:58;;;;;;;5.38;3.80;;;16.60;58.30;;;;;;5103937;28;20381;-80
2022/03/13 16:03:26;;;;;;;7.53;3.42;;;16.10;58.40;;;;;;5104251;28;20090;-80
2022/03/13 16:05:52;;;;;;;9.68;6.60;;;15.50;60.10;;;;;;5099611;28;20024;-79
2022/03/13 16:08:18;;;;;;;16.00;12.07;;;15.70;60.70;;;;;;5104168;28;20497;-79
2022/03/13 16:10:44;;;;;;;25.23;13.68;;;15.60;60.70;;;;;;5099712;28;20020;-79
2022/03/13 16:13:16;;;;;;;5.72;3.47;;;14.70;62.30;;;;;;5085934;28;20024;-80
2022/03/13 16:15:43;;;;;;;7.10;3.75;;;13.40;65.30;;;;;;5099776;28;20028;-79
2022/03/13 16:18:13;;;;;;;10.05;7.10;;;12.60;67.90;;;;;;5103838;28;20039;-79
2022/03/13 16:20:42;;;;;;;7.00;4.53;;;13.10;68.00;;;;;;5079540;28;20042;-79
2022/03/13 16:23:10;;;;;;;8.48;6.25;;;13.50;68.20;;;;;;5103822;28;20027;-79
2022/03/13 16:25:36;;;;;;;5.28;4.22;;;13.60;67.90;;;;;;5099148;28;20030;-79
2022/03/13 16:28:08;;;;;;;8.02;6.95;;;13.80;67.60;;;;;;5084107;28;20016;-79
2022/03/13 16:30:34;;;;;;;11.85;10.50;;;13.50;68.20;;;;;;5091561;28;20032;-79
2022/03/13 16:33:01;;;;;;;4.90;3.80;;;13.40;69.20;;;;;;5103290;28;20460;-80
2022/03/13 16:35:28;;;;;;;4.97;4.07;;;13.20;69.80;;;;;;5099121;28;20078;-80
2022/03/13 16:37:54;;;;;;;6.00;4.05;;;12.90;72.30;;;;;;5102280;28;20398;-79
2022/03/13 16:40:26;;;;;;;7.13;4.10;;;12.40;73.70;;;;;;5100236;28;20024;-79
2022/03/13 16:42:54;;;;;;;7.93;3.42;;;11.90;73.80;;;;;;5100045;28;20031;-79
2022/03/13 16:45:20;;;;;;;4.80;3.40;;;11.10;75.20;;;;;;5104701;28;20028;-79
2022/03/13 16:47:47;;;;;;;5.35;3.30;;;10.50;76.30;;;;;;5104137;28;20020;-79
2022/03/13 16:50:25;;;;;;;5.25;3.42;;;10.00;78.60;;;;;;5100265;28;20416;-79
2022/03/13 16:52:50;;;;;;;4.65;3.58;;;9.60;81.20;;;;;;5074202;28;20017;-80
2022/03/13 16:55:16;;;;;;;6.78;4.00;;;9.30;83.90;;;;;;5100236;28;20050;-79
2022/03/13 16:57:44;;;;;;;9.68;4.68;;;9.20;85.40;;;;;;5100124;28;20032;-79
2022/03/13 17:00:15;;;;;;;6.10;4.20;;;9.00;87.10;;;;;;5100432;28;20088;-80
2022/03/13 17:02:44;;;;;;;6.97;4.70;;;8.90;88.70;;;;;;5081312;28;20440;-81
2022/03/13 17:05:13;;;;;;;10.82;7.25;;;8.80;90.00;;;;;;5098810;28;20119;-80
2022/03/13 17:07:39;;;;;;;9.75;4.13;;;8.70;90.50;;;;;;5104183;28;20084;-80
2022/03/13 17:10:10;;;;;;;5.43;4.70;;;8.70;90.50;;;;;;5105248;28;20032;-79
2022/03/13 17:12:53;;;;;;;7.03;4.38;;;8.50;90.80;;;;;;5100133;28;20077;-78
2022/03/13 17:15:19;;;;;;;7.70;4.43;;;8.50;91.10;;;;;;5098972;28;20089;-81
2022/03/13 17:17:45;;;;;;;5.72;4.25;;;8.40;91.20;;;;;;5100254;28;20030;-78
2022/03/13 17:20:12;;;;;;;6.70;4.78;;;8.30;91.90;;;;;;5099182;28;20032;-78
2022/03/13 17:22:39;;;;;;;5.05;3.88;;;8.20;92.70;;;;;;5101731;28;20442;-78
2022/03/13 17:25:12;;;;;;;6.32;4.63;;;8.10;93.70;;;;;;5099856;28;20041;-79
2022/03/13 17:27:38;;;;;;;6.68;4.70;;;8.10;94.80;;;;;;5099937;28;20378;-79
2022/03/13 17:30:05;;;;;;;4.78;4.18;;;8.10;96.40;;;;;;5099987;28;20020;-78
2022/03/13 17:32:31;;;;;;;7.88;5.00;;;8.00;98.40;;;;;;5099408;28;20023;-79
2022/03/13 17:34:56;;;;;;;7.80;5.53;;;7.90;99.90;;;;;;5100585;27;20028;-80
2022/03/13 17:37:22;;;;;;;5.75;4.20;;;7.90;99.90;;;;;;5083115;28;20497;-80
2022/03/13 17:39:48;;;;;;;6.97;4.47;;;7.90;99.90;;;;;;5098563;28;20016;-80
2022/03/13 17:42:16;;;;;;;5.93;4.50;;;7.80;99.90;;;;;;5061939;28;20062;-79
2022/03/13 17:44:42;;;;;;;10.20;7.28;;;7.80;99.90;;;;;;5075559;28;20120;-80
2022/03/13 17:47:08;;;;;;;12.75;8.50;;;7.70;99.90;;;;;;5101571;28;20494;-81
2022/03/13 17:49:41;;;;;;;12.82;9.68;;;7.60;99.90;;;;;;5080575;28;20036;-83
2022/03/13 17:52:07;;;;;;;12.32;9.80;;;7.50;99.90;;;;;;5101257;28;20110;-79
2022/03/13 17:54:34;;;;;;;12.25;8.65;;;7.40;99.90;;;;;;5102773;28;20234;-79
2022/03/13 17:57:03;;;;;;;18.73;9.60;;;7.30;99.90;;;;;;5100891;28;20024;-79
2022/03/13 17:59:29;;;;;;;11.95;9.75;;;7.30;99.90;;;;;;5103693;28;20475;-79
2022/03/13 18:01:59;;;;;;;12.90;8.52;;;7.20;99.90;;;;;;5100281;28;20034;-79
2022/03/13 18:04:24;;;;;;;13.75;9.50;;;7.10;99.90;;;;;;5096677;28;20118;-79
2022/03/13 18:06:50;;;;;;;10.48;8.77;;;7.10;99.90;;;;;;5098389;28;20604;-79
2022/03/13 18:09:16;;;;;;;11.95;9.07;;;7.00;99.90;;;;;;5096786;28;20024;-79
2022/03/13 18:11:42;;;;;;;12.38;9.30;;;6.90;99.90;;;;;;5101082;28;20478;-79
2022/03/13 18:14:08;;;;;;;511.08;209.93;;;6.90;99.90;;;;;;5101603;28;20019;-80
2022/03/13 18:16:36;;;;;;;214.52;82.03;;;6.80;99.90;;;;;;5100522;28;20086;-79
2022/03/13 18:19:02;;;;;;;237.07;96.82;;;6.60;99.90;;;;;;5095481;28;20036;-79
2022/03/13 18:21:38;;;;;;;127.93;52.85;;;6.50;99.90;;;;;;5103692;28;20028;-79
2022/03/13 18:24:07;;;;;;;74.35;33.03;;;6.50;99.90;;;;;;5102785;28;20031;-79
2022/03/13 18:26:34;;;;;;;18.90;13.90;;;6.40;99.90;;;;;;5097052;28;20111;-80
2022/03/13 18:29:00;;;;;;;20.98;12.88;;;6.30;99.90;;;;;;5099974;28;20178;-79
2022/03/13 18:31:26;;;;;;;21.13;12.93;;;6.10;99.90;;;;;;5097838;28;20259;-79